Time;durP1;ratioP1;P1;durP2;ratioP2;P2;SDS_P1;SDS_P2;PMS_P1;PMS_P2;Temp;Humidity;BMP_temperature;BMP_pressure;BME280_temperature;BME280_humidity;BME280_pressure;Samples;Min_cycle;Max_cycle;Signal;HPM_P1;HPM_P2
2022/10/19 00:02:00;;;;;;;;;;;23.00;46.40;;;;;;474710;251;1351;-54
2022/10/19 00:04:02;;;;;;;;;;;23.00;46.40;;;;;;474960;251;1342;-54
2022/10/19 00:06:03;;;;;;;;;;;23.00;46.40;;;;;;474563;251;1411;-53
2022/10/19 00:08:04;;;;;;;;;;;23.00;46.40;;;;;;474544;251;1368;-54
2022/10/19 00:10:06;;;;;;;;;;;23.00;46.40;;;;;;474879;251;1322;-54
2022/10/19 00:12:07;;;;;;;;;;;23.00;46.40;;;;;;474773;251;1284;-54
2022/10/19 00:14:08;;;;;;;;;;;23.00;46.40;;;;;;474832;251;1305;-54
2022/10/19 00:16:10;;;;;;;;;;;23.00;46.40;;;;;;474882;251;1336;-54
2022/10/19 00:18:11;;;;;;;;;;;23.00;46.50;;;;;;474660;251;1354;-54
2022/10/19 00:20:12;;;;;;;;;;;23.00;46.40;;;;;;474867;251;2184;-54
2022/10/19 00:22:14;;;;;;;;;;;23.00;46.40;;;;;;474803;251;1203;-54
2022/10/19 00:24:15;;;;;;;;;;;23.00;46.50;;;;;;474781;251;1223;-54
2022/10/19 00:26:16;;;;;;;;;;;23.00;46.50;;;;;;474574;251;1175;-54
2022/10/19 00:28:18;;;;;;;;;;;23.00;46.50;;;;;;474901;251;1170;-52
2022/10/19 00:30:19;;;;;;;;;;;23.00;46.50;;;;;;475049;251;1301;-53
2022/10/19 00:32:20;;;;;;;;;;;23.00;46.50;;;;;;474999;251;1214;-54
2022/10/19 00:34:22;;;;;;;;;;;23.00;46.50;;;;;;474925;251;1236;-54
2022/10/19 00:36:23;;;;;;;;;;;22.90;46.50;;;;;;475015;251;1228;-54
2022/10/19 00:38:24;;;;;;;;;;;23.00;46.60;;;;;;474624;251;1196;-54
2022/10/19 00:40:26;;;;;;;;;;;22.90;46.60;;;;;;474975;251;2164;-54
2022/10/19 00:42:27;;;;;;;;;;;23.00;46.60;;;;;;475029;251;1351;-54
2022/10/19 00:44:28;;;;;;;;;;;22.90;46.60;;;;;;474760;251;1195;-54
2022/10/19 00:46:30;;;;;;;;;;;22.90;46.60;;;;;;474589;251;1134;-54
2022/10/19 00:48:31;;;;;;;;;;;22.90;46.70;;;;;;475058;251;1204;-54
2022/10/19 00:50:32;;;;;;;;;;;22.90;46.70;;;;;;474802;251;1262;-53
2022/10/19 00:52:34;;;;;;;;;;;22.90;46.80;;;;;;474599;251;1217;-54
2022/10/19 00:54:35;;;;;;;;;;;22.90;46.80;;;;;;474826;251;1315;-54
2022/10/19 00:56:36;;;;;;;;;;;22.90;46.80;;;;;;474757;251;1424;-54
2022/10/19 00:58:38;;;;;;;;;;;22.80;46.80;;;;;;474565;251;1256;-53
2022/10/19 01:00:39;;;;;;;;;;;22.90;46.80;;;;;;474581;251;2181;-53
2022/10/19 01:02:40;;;;;;;;;;;22.90;46.90;;;;;;474717;251;1199;-54
2022/10/19 01:04:42;;;;;;;;;;;22.90;46.90;;;;;;474957;251;1226;-53
2022/10/19 01:06:43;;;;;;;;;;;22.90;46.90;;;;;;474971;251;1214;-54
2022/10/19 01:08:44;;;;;;;;;;;22.80;46.90;;;;;;474582;251;1178;-54
2022/10/19 01:10:45;;;;;;;;;;;22.90;46.90;;;;;;474571;251;1225;-54
2022/10/19 01:12:47;;;;;;;;;;;22.90;47.00;;;;;;474596;251;1355;-54
2022/10/19 01:14:48;;;;;;;;;;;22.80;47.00;;;;;;474691;251;1580;-54
2022/10/19 01:16:50;;;;;;;;;;;22.90;47.00;;;;;;474924;251;1234;-54
2022/10/19 01:18:51;;;;;;;;;;;22.80;46.90;;;;;;474551;251;1529;-54
2022/10/19 01:20:53;;;;;;;;;;;22.90;47.00;;;;;;474889;251;2196;-54
2022/10/19 01:22:54;;;;;;;;;;;22.90;47.00;;;;;;474529;251;1227;-54
2022/10/19 01:24:55;;;;;;;;;;;22.80;47.00;;;;;;474803;251;1257;-54
2022/10/19 01:26:57;;;;;;;;;;;22.90;47.00;;;;;;474995;251;1199;-54
2022/10/19 01:28:58;;;;;;;;;;;22.80;47.00;;;;;;474583;251;1280;-54
2022/10/19 01:30:59;;;;;;;;;;;22.80;47.00;;;;;;474662;251;1394;-54
2022/10/19 01:33:01;;;;;;;;;;;22.90;47.00;;;;;;474525;251;1213;-53
2022/10/19 01:35:02;;;;;;;;;;;22.80;47.00;;;;;;474753;251;1220;-54
2022/10/19 01:37:03;;;;;;;;;;;22.80;47.00;;;;;;474368;251;1379;-54
2022/10/19 01:39:05;;;;;;;;;;;22.90;47.00;;;;;;474585;251;1333;-54
2022/10/19 01:41:06;;;;;;;;;;;22.90;47.00;;;;;;474475;251;2166;-54
2022/10/19 01:43:07;;;;;;;;;;;22.90;47.00;;;;;;474824;251;1274;-54
2022/10/19 01:45:09;;;;;;;;;;;22.80;47.00;;;;;;474589;251;1233;-54
2022/10/19 01:47:10;;;;;;;;;;;22.80;47.00;;;;;;474529;251;1235;-54
2022/10/19 01:49:11;;;;;;;;;;;22.80;47.00;;;;;;474986;251;1394;-54
2022/10/19 01:51:13;;;;;;;;;;;22.90;47.10;;;;;;474675;251;1216;-54
2022/10/19 01:53:14;;;;;;;;;;;22.80;47.00;;;;;;474511;251;1674;-54
2022/10/19 01:55:15;;;;;;;;;;;22.90;47.10;;;;;;474989;251;1343;-54
2022/10/19 01:57:17;;;;;;;;;;;22.80;47.00;;;;;;474713;251;1285;-54
2022/10/19 01:59:18;;;;;;;;;;;22.80;47.10;;;;;;474720;251;1363;-54
2022/10/19 02:01:19;;;;;;;;;;;22.80;47.20;;;;;;474374;251;2165;-54
2022/10/19 02:03:21;;;;;;;;;;;22.80;47.20;;;;;;474477;251;1231;-54
2022/10/19 02:05:22;;;;;;;;;;;22.80;47.10;;;;;;474769;251;1222;-54
2022/10/19 02:07:23;;;;;;;;;;;22.80;47.10;;;;;;474370;251;1412;-53
2022/10/19 02:09:25;;;;;;;;;;;22.80;47.10;;;;;;474511;251;1250;-54
2022/10/19 02:11:26;;;;;;;;;;;22.80;47.20;;;;;;474466;251;1598;-54
2022/10/19 02:13:27;;;;;;;;;;;22.80;47.20;;;;;;474484;251;1203;-55
2022/10/19 02:15:28;;;;;;;;;;;22.80;47.30;;;;;;474645;251;1314;-54
2022/10/19 02:17:30;;;;;;;;;;;22.80;47.30;;;;;;474534;251;1715;-54
2022/10/19 02:19:31;;;;;;;;;;;22.70;47.20;;;;;;474779;251;1821;-53
2022/10/19 02:21:32;;;;;;;;;;;22.80;47.30;;;;;;474347;251;2200;-53
2022/10/19 02:23:34;;;;;;;;;;;22.80;47.30;;;;;;474361;251;1400;-53
2022/10/19 02:25:35;;;;;;;;;;;22.80;47.30;;;;;;474570;251;1381;-54
2022/10/19 02:27:37;;;;;;;;;;;22.70;47.20;;;;;;474630;251;1303;-54
2022/10/19 02:29:38;;;;;;;;;;;22.80;47.10;;;;;;474515;251;1990;-54
2022/10/19 02:31:39;;;;;;;;;;;22.80;47.00;;;;;;474519;251;1205;-54
2022/10/19 02:33:40;;;;;;;;;;;22.80;46.80;;;;;;474721;251;1976;-54
2022/10/19 02:35:42;;;;;;;;;;;22.80;46.80;;;;;;474702;251;1311;-54
2022/10/19 02:37:43;;;;;;;;;;;22.90;46.60;;;;;;474923;251;1256;-54
2022/10/19 02:39:44;;;;;;;;;;;22.90;46.60;;;;;;474496;251;1270;-54
2022/10/19 02:41:46;;;;;;;;;;;22.80;46.50;;;;;;474927;251;2211;-54
2022/10/19 02:43:47;;;;;;;;;;;22.80;46.50;;;;;;474714;251;1286;-54
2022/10/19 02:45:48;;;;;;;;;;;22.90;46.40;;;;;;474729;251;1302;-53
2022/10/19 02:47:50;;;;;;;;;;;22.90;46.30;;;;;;474572;251;1271;-54
2022/10/19 02:49:51;;;;;;;;;;;22.90;46.30;;;;;;474526;251;1403;-54
2022/10/19 02:51:52;;;;;;;;;;;22.90;46.10;;;;;;474606;251;1374;-54
2022/10/19 02:53:54;;;;;;;;;;;22.90;46.00;;;;;;474529;251;1296;-54
2022/10/19 02:55:55;;;;;;;;;;;22.90;46.10;;;;;;474807;251;1367;-54
2022/10/19 02:57:57;;;;;;;;;;;22.90;45.90;;;;;;474565;251;1228;-54
2022/10/19 02:59:58;;;;;;;;;;;22.90;46.00;;;;;;474667;251;1259;-54
2022/10/19 03:01:59;;;;;;;;;;;22.90;45.90;;;;;;474530;251;2153;-54
2022/10/19 03:04:00;;;;;;;;;;;22.90;45.80;;;;;;474548;251;1527;-54
2022/10/19 03:06:02;;;;;;;;;;;22.90;45.80;;;;;;474953;251;1438;-54
2022/10/19 03:08:03;;;;;;;;;;;22.90;45.70;;;;;;474996;251;1247;-54
2022/10/19 03:10:04;;;;;;;;;;;22.90;45.60;;;;;;474615;251;1252;-54
2022/10/19 03:12:06;;;;;;;;;;;22.90;45.70;;;;;;474584;251;1229;-54
2022/10/19 03:14:07;;;;;;;;;;;22.90;45.60;;;;;;474536;251;1239;-54
2022/10/19 03:16:08;;;;;;;;;;;22.90;45.60;;;;;;474726;251;1219;-54
2022/10/19 03:18:10;;;;;;;;;;;22.90;45.40;;;;;;475003;251;1594;-54
2022/10/19 03:20:11;;;;;;;;;;;22.90;45.40;;;;;;474896;251;1211;-54
2022/10/19 03:22:12;;;;;;;;;;;23.00;45.30;;;;;;474575;251;2197;-54
2022/10/19 03:24:13;;;;;;;;;;;22.90;45.20;;;;;;474800;251;1247;-54
2022/10/19 03:26:15;;;;;;;;;;;22.90;45.20;;;;;;474576;251;1324;-54
2022/10/19 03:28:16;;;;;;;;;;;22.90;45.20;;;;;;474601;251;1212;-54
2022/10/19 03:30:18;;;;;;;;;;;22.90;45.30;;;;;;474999;251;1264;-54
2022/10/19 03:32:19;;;;;;;;;;;22.90;45.20;;;;;;474884;251;1312;-54
2022/10/19 03:34:20;;;;;;;;;;;22.90;45.10;;;;;;474599;251;1307;-54
2022/10/19 03:36:21;;;;;;;;;;;22.90;45.10;;;;;;474623;251;1246;-54
2022/10/19 03:38:23;;;;;;;;;;;22.90;45.10;;;;;;474539;251;1195;-54
2022/10/19 03:40:24;;;;;;;;;;;22.90;45.00;;;;;;474617;251;1726;-54
2022/10/19 03:42:25;;;;;;;;;;;22.90;44.90;;;;;;474995;251;2177;-54
2022/10/19 03:44:27;;;;;;;;;;;22.90;45.00;;;;;;474573;251;1565;-54
2022/10/19 03:46:28;;;;;;;;;;;22.90;44.80;;;;;;474584;251;1244;-54
2022/10/19 03:48:30;;;;;;;;;;;22.90;44.70;;;;;;474723;251;1275;-54
2022/10/19 03:50:31;;;;;;;;;;;22.90;44.80;;;;;;474516;251;1295;-54
2022/10/19 03:52:32;;;;;;;;;;;23.00;44.60;;;;;;474533;251;1654;-54
2022/10/19 03:54:34;;;;;;;;;;;23.00;44.60;;;;;;474532;251;1281;-54
2022/10/19 03:56:35;;;;;;;;;;;23.00;44.60;;;;;;474638;251;1269;-54
2022/10/19 03:58:36;;;;;;;;;;;23.00;44.60;;;;;;474659;251;1274;-53
2022/10/19 04:00:38;;;;;;;;;;;22.90;44.50;;;;;;474483;251;1342;-54
2022/10/19 04:02:39;;;;;;;;;;;23.00;44.60;;;;;;474447;251;2181;-54
2022/10/19 04:04:40;;;;;;;;;;;23.00;44.50;;;;;;474532;251;1245;-54
2022/10/19 04:06:42;;;;;;;;;;;23.00;44.50;;;;;;474472;251;1651;-54
2022/10/19 04:08:43;;;;;;;;;;;22.90;44.40;;;;;;474565;251;1388;-54
2022/10/19 04:10:44;;;;;;;;;;;23.00;44.40;;;;;;474545;251;1734;-54
2022/10/19 04:12:45;;;;;;;;;;;23.00;44.40;;;;;;474519;251;1354;-53
2022/10/19 04:14:47;;;;;;;;;;;23.00;44.30;;;;;;474785;251;1189;-54
2022/10/19 04:16:48;;;;;;;;;;;22.90;44.30;;;;;;474830;251;1547;-54
2022/10/19 04:18:50;;;;;;;;;;;23.00;44.30;;;;;;475022;251;1352;-54
2022/10/19 04:20:51;;;;;;;;;;;23.00;44.20;;;;;;474786;251;1217;-54
2022/10/19 04:22:52;;;;;;;;;;;23.00;44.20;;;;;;474501;251;2201;-54
2022/10/19 04:24:53;;;;;;;;;;;22.90;44.20;;;;;;474837;251;1221;-54
2022/10/19 04:26:55;;;;;;;;;;;23.00;44.20;;;;;;474587;251;1165;-54
2022/10/19 04:28:56;;;;;;;;;;;23.00;44.00;;;;;;474742;251;1240;-54
2022/10/19 04:30:57;;;;;;;;;;;23.00;44.10;;;;;;474566;251;1148;-53
2022/10/19 04:32:59;;;;;;;;;;;23.00;44.00;;;;;;474540;251;1185;-54
2022/10/19 04:35:00;;;;;;;;;;;23.00;44.10;;;;;;474657;251;1167;-54
2022/10/19 04:37:01;;;;;;;;;;;23.00;44.00;;;;;;474848;251;1393;-53
2022/10/19 04:39:03;;;;;;;;;;;23.00;44.00;;;;;;474602;251;1258;-54
2022/10/19 04:41:04;;;;;;;;;;;23.00;44.00;;;;;;474607;251;1235;-54
2022/10/19 04:43:05;;;;;;;;;;;23.00;43.90;;;;;;474786;251;2141;-54
2022/10/19 04:45:07;;;;;;;;;;;23.00;44.00;;;;;;474655;251;1307;-54
2022/10/19 04:47:08;;;;;;;;;;;23.00;44.00;;;;;;474759;251;1272;-54
2022/10/19 04:49:09;;;;;;;;;;;23.00;43.90;;;;;;474629;251;1213;-54
2022/10/19 04:51:11;;;;;;;;;;;23.00;43.90;;;;;;474551;251;1301;-54
2022/10/19 04:53:12;;;;;;;;;;;23.00;43.80;;;;;;474520;251;1244;-54
2022/10/19 04:55:13;;;;;;;;;;;23.00;44.10;;;;;;474807;251;1247;-54
2022/10/19 04:57:15;;;;;;;;;;;22.90;44.20;;;;;;474837;251;1191;-54
2022/10/19 04:59:16;;;;;;;;;;;22.90;44.30;;;;;;474619;251;1254;-53
2022/10/19 05:01:17;;;;;;;;;;;22.90;44.50;;;;;;474582;251;1208;-54
2022/10/19 05:03:19;;;;;;;;;;;22.80;44.60;;;;;;474769;251;1231;-54
2022/10/19 05:05:20;;;;;;;;;;;22.90;44.70;;;;;;474533;251;1245;-54
2022/10/19 05:07:21;;;;;;;;;;;22.90;44.80;;;;;;474942;251;1177;-54
2022/10/19 05:09:23;;;;;;;;;;;22.90;44.90;;;;;;474605;251;1236;-53
2022/10/19 05:11:24;;;;;;;;;;;22.90;45.00;;;;;;474571;251;1203;-54
2022/10/19 05:13:25;;;;;;;;;;;22.90;45.10;;;;;;475005;251;1606;-54
2022/10/19 05:15:27;;;;;;;;;;;22.80;45.10;;;;;;474568;251;1229;-54
2022/10/19 05:17:28;;;;;;;;;;;22.80;45.10;;;;;;474584;251;1179;-54
2022/10/19 05:19:29;;;;;;;;;;;22.80;45.20;;;;;;474977;251;1223;-54
2022/10/19 05:21:31;;;;;;;;;;;22.80;45.20;;;;;;474499;251;2200;-54
2022/10/19 05:23:32;;;;;;;;;;;22.80;45.20;;;;;;474516;251;1659;-54
2022/10/19 05:25:33;;;;;;;;;;;22.80;45.30;;;;;;474504;251;1267;-54
2022/10/19 05:27:35;;;;;;;;;;;22.80;45.30;;;;;;474729;251;1277;-54
2022/10/19 05:29:36;;;;;;;;;;;22.80;45.30;;;;;;474466;251;1241;-53
2022/10/19 05:31:37;;;;;;;;;;;22.80;45.40;;;;;;474656;251;1207;-54
2022/10/19 05:33:39;;;;;;;;;;;22.80;45.30;;;;;;474706;251;1294;-53
2022/10/19 05:35:40;;;;;;;;;;;22.80;45.40;;;;;;474732;251;1181;-54
2022/10/19 05:37:41;;;;;;;;;;;22.80;45.50;;;;;;474851;251;1221;-54
2022/10/19 05:39:43;;;;;;;;;;;22.80;45.50;;;;;;474628;251;1437;-54
2022/10/19 05:41:44;;;;;;;;;;;22.80;45.50;;;;;;474621;251;2205;-54
2022/10/19 05:43:45;;;;;;;;;;;22.80;45.60;;;;;;474500;251;1267;-54
2022/10/19 05:45:47;;;;;;;;;;;22.80;45.50;;;;;;474813;251;1265;-54
2022/10/19 05:47:48;;;;;;;;;;;22.80;45.50;;;;;;474614;251;1226;-54
2022/10/19 05:49:49;;;;;;;;;;;22.80;45.50;;;;;;474517;251;1228;-54
2022/10/19 05:51:50;;;;;;;;;;;22.80;45.60;;;;;;474761;251;1279;-54
2022/10/19 05:53:52;;;;;;;;;;;22.80;45.70;;;;;;474579;251;1188;-53
2022/10/19 05:55:53;;;;;;;;;;;22.70;45.70;;;;;;474510;251;1240;-54
2022/10/19 05:57:54;;;;;;;;;;;22.80;45.70;;;;;;474486;251;1232;-53
2022/10/19 05:59:57;;;;;;;;;;;22.80;45.70;;;;;;474610;251;1264;-54
2022/10/19 06:01:57;;;;;;;;;;;22.80;45.70;;;;;;474333;251;2161;-53
2022/10/19 06:03:58;;;;;;;;;;;22.80;45.70;;;;;;474496;251;1217;-54
2022/10/19 06:06:00;;;;;;;;;;;22.70;45.80;;;;;;474368;251;1516;-53
2022/10/19 06:08:01;;;;;;;;;;;22.80;45.80;;;;;;474374;251;1202;-54
2022/10/19 06:10:03;;;;;;;;;;;22.80;45.90;;;;;;474444;251;1246;-53
2022/10/19 06:12:04;;;;;;;;;;;22.80;45.90;;;;;;474408;251;1255;-54
2022/10/19 06:14:05;;;;;;;;;;;22.80;46.00;;;;;;474460;251;1259;-54
2022/10/19 06:16:07;;;;;;;;;;;22.80;46.00;;;;;;474264;251;1535;-54
2022/10/19 06:18:08;;;;;;;;;;;22.70;46.00;;;;;;474590;251;1270;-54
2022/10/19 06:20:09;;;;;;;;;;;22.70;46.00;;;;;;474746;251;1296;-54
2022/10/19 06:22:11;;;;;;;;;;;22.80;46.10;;;;;;474225;251;2217;-54
2022/10/19 06:24:12;;;;;;;;;;;22.80;46.20;;;;;;474483;251;1344;-54
2022/10/19 06:26:13;;;;;;;;;;;22.80;46.20;;;;;;474347;251;1689;-54
2022/10/19 06:28:15;;;;;;;;;;;22.70;46.20;;;;;;474285;251;1291;-54
2022/10/19 06:30:16;;;;;;;;;;;22.70;46.20;;;;;;474383;251;1256;-54
2022/10/19 06:32:17;;;;;;;;;;;22.80;46.30;;;;;;474254;251;1317;-54
2022/10/19 06:34:19;;;;;;;;;;;22.80;46.30;;;;;;474507;251;1182;-54
2022/10/19 06:36:20;;;;;;;;;;;22.80;46.30;;;;;;474458;251;1248;-54
2022/10/19 06:38:22;;;;;;;;;;;22.80;46.40;;;;;;474521;251;1573;-54
2022/10/19 06:40:23;;;;;;;;;;;22.80;46.40;;;;;;474736;251;1283;-53
2022/10/19 06:42:24;;;;;;;;;;;22.80;46.40;;;;;;474441;251;2161;-53
2022/10/19 06:44:26;;;;;;;;;;;22.80;46.40;;;;;;474510;251;1409;-54
2022/10/19 06:46:27;;;;;;;;;;;22.80;46.50;;;;;;474814;251;1247;-53
2022/10/19 06:48:28;;;;;;;;;;;22.80;46.50;;;;;;474476;251;1313;-54
2022/10/19 06:50:30;;;;;;;;;;;22.80;46.50;;;;;;474354;251;1199;-54
2022/10/19 06:52:31;;;;;;;;;;;22.80;46.60;;;;;;474476;251;2251;-54
2022/10/19 06:54:32;;;;;;;;;;;22.80;46.60;;;;;;474418;251;1280;-53
2022/10/19 06:56:34;;;;;;;;;;;22.80;46.60;;;;;;474418;251;1401;-54
2022/10/19 06:58:35;;;;;;;;;;;22.80;46.70;;;;;;474595;251;1380;-53
2022/10/19 07:00:37;;;;;;;;;;;22.80;46.70;;;;;;474334;251;1292;-54
2022/10/19 07:02:38;;;;;;;;;;;22.80;46.70;;;;;;474204;251;2205;-54
2022/10/19 07:04:39;;;;;;;;;;;22.80;46.80;;;;;;474266;251;1189;-54
2022/10/19 07:06:41;;;;;;;;;;;22.80;46.80;;;;;;474408;251;1262;-54
2022/10/19 07:08:42;;;;;;;;;;;22.80;46.80;;;;;;474386;251;1271;-54
2022/10/19 07:10:43;;;;;;;;;;;22.80;46.90;;;;;;474290;251;1217;-54
2022/10/19 07:12:45;;;;;;;;;;;22.80;46.90;;;;;;474323;251;1221;-54
2022/10/19 07:14:46;;;;;;;;;;;22.80;47.00;;;;;;474324;251;1333;-54
2022/10/19 07:16:47;;;;;;;;;;;22.80;47.00;;;;;;474224;251;1282;-53
2022/10/19 07:18:49;;;;;;;;;;;22.80;47.00;;;;;;474146;251;1269;-54
2022/10/19 07:20:50;;;;;;;;;;;22.80;47.00;;;;;;474104;251;1307;-54
2022/10/19 07:22:51;;;;;;;;;;;22.80;47.00;;;;;;473997;251;2185;-54
2022/10/19 07:24:53;;;;;;;;;;;22.80;47.00;;;;;;474116;251;1603;-54
2022/10/19 07:26:54;;;;;;;;;;;22.80;47.00;;;;;;474185;251;1259;-53
2022/10/19 07:28:55;;;;;;;;;;;22.80;47.00;;;;;;474268;251;1252;-53
2022/10/19 07:30:57;;;;;;;;;;;22.80;47.00;;;;;;474271;251;1234;-54
2022/10/19 07:32:58;;;;;;;;;;;22.80;47.10;;;;;;474072;251;1278;-54
2022/10/19 07:34:59;;;;;;;;;;;22.80;47.20;;;;;;474011;251;1192;-54
2022/10/19 07:37:01;;;;;;;;;;;22.80;47.20;;;;;;474321;251;1216;-54
2022/10/19 07:39:04;;;;;;;;;;;22.80;47.20;;;;;;474308;251;1260;-54
2022/10/19 07:41:03;;;;;;;;;;;22.80;47.20;;;;;;474390;251;2029;-53
2022/10/19 07:43:05;;;;;;;;;;;22.80;47.20;;;;;;474435;251;2185;-54
2022/10/19 07:45:06;;;;;;;;;;;22.80;47.30;;;;;;474267;251;1269;-54
2022/10/19 07:47:07;;;;;;;;;;;22.80;47.30;;;;;;474272;251;1597;-54
2022/10/19 07:49:09;;;;;;;;;;;22.80;47.40;;;;;;474388;251;1253;-54
2022/10/19 07:51:10;;;;;;;;;;;22.80;47.40;;;;;;474280;251;1288;-53
2022/10/19 07:53:11;;;;;;;;;;;22.80;47.40;;;;;;474586;251;1248;-53
2022/10/19 07:55:13;;;;;;;;;;;22.80;47.40;;;;;;474227;251;1588;-54
2022/10/19 07:57:14;;;;;;;;;;;22.80;47.40;;;;;;474030;251;1553;-54
2022/10/19 07:59:16;;;;;;;;;;;22.80;47.20;;;;;;474141;251;1299;-54
2022/10/19 08:01:17;;;;;;;;;;;22.80;47.20;;;;;;474207;251;1255;-54
2022/10/19 08:03:18;;;;;;;;;;;22.80;47.00;;;;;;474192;251;2196;-54
2022/10/19 08:05:19;;;;;;;;;;;22.80;47.00;;;;;;474373;251;1537;-54
2022/10/19 08:07:21;;;;;;;;;;;22.80;47.00;;;;;;474074;251;1409;-54
2022/10/19 08:09:22;;;;;;;;;;;22.90;47.00;;;;;;474183;251;1270;-53
2022/10/19 08:11:23;;;;;;;;;;;22.90;46.90;;;;;;474129;251;1676;-54
2022/10/19 08:13:25;;;;;;;;;;;22.80;46.70;;;;;;474092;251;1212;-54
2022/10/19 08:15:27;;;;;;;;;;;22.80;46.70;;;;;;474177;251;1536;-54
2022/10/19 08:17:27;;;;;;;;;;;22.90;46.70;;;;;;473999;251;2381;-54
2022/10/19 08:19:29;;;;;;;;;;;22.90;46.60;;;;;;474285;251;1259;-53
2022/10/19 08:21:30;;;;;;;;;;;22.90;46.50;;;;;;474086;251;1217;-54
2022/10/19 08:23:32;;;;;;;;;;;22.90;46.30;;;;;;474210;251;2189;-54
2022/10/19 08:25:33;;;;;;;;;;;22.90;46.40;;;;;;474203;251;1270;-54
2022/10/19 08:27:34;;;;;;;;;;;22.90;46.40;;;;;;474111;251;1549;-54
2022/10/19 08:29:36;;;;;;;;;;;22.90;46.30;;;;;;474277;251;1747;-54
2022/10/19 08:31:37;;;;;;;;;;;22.90;46.30;;;;;;474419;251;1369;-54
2022/10/19 08:33:38;;;;;;;;;;;23.00;46.30;;;;;;474229;251;1258;-53
2022/10/19 08:35:40;;;;;;;;;;;23.00;46.10;;;;;;474098;251;1333;-54
2022/10/19 08:37:41;;;;;;;;;;;22.90;46.10;;;;;;474190;251;1518;-53
2022/10/19 08:39:42;;;;;;;;;;;23.00;46.20;;;;;;474111;251;1171;-53
2022/10/19 08:41:44;;;;;;;;;;;23.00;46.00;;;;;;474301;251;1441;-54
2022/10/19 08:43:45;;;;;;;;;;;23.00;46.00;;;;;;474215;251;2202;-54
2022/10/19 08:45:47;;;;;;;;;;;23.00;46.20;;;;;;474052;251;1651;-53
2022/10/19 08:47:48;;;;;;;;;;;23.00;46.00;;;;;;473987;251;2129;-54
2022/10/19 08:49:49;;;;;;;;;;;23.00;45.90;;;;;;473986;251;1218;-54
2022/10/19 08:51:50;;;;;;;;;;;23.00;45.90;;;;;;474204;251;1315;-54
2022/10/19 08:53:52;;;;;;;;;;;23.00;46.00;;;;;;474001;251;1503;-54
2022/10/19 08:55:53;;;;;;;;;;;23.00;45.90;;;;;;473925;251;1275;-54
2022/10/19 08:57:55;;;;;;;;;;;23.00;45.90;;;;;;474282;251;1202;-54
2022/10/19 08:59:56;;;;;;;;;;;23.00;45.80;;;;;;474071;251;1571;-54
2022/10/19 09:01:58;;;;;;;;;;;23.00;45.90;;;;;;474199;251;1305;-54
2022/10/19 09:03:59;;;;;;;;;;;23.00;45.70;;;;;;474112;251;2379;-54
2022/10/19 09:06:00;;;;;;;;;;;23.00;45.80;;;;;;474207;251;1294;-53
2022/10/19 09:08:01;;;;;;;;;;;23.00;45.70;;;;;;474100;251;1359;-54
2022/10/19 09:10:03;;;;;;;;;;;23.00;45.70;;;;;;474016;251;1557;-54
2022/10/19 09:12:04;;;;;;;;;;;23.00;45.70;;;;;;474066;251;1277;-54
2022/10/19 09:14:05;;;;;;;;;;;23.00;45.60;;;;;;473840;251;1302;-54
2022/10/19 09:16:07;;;;;;;;;;;23.00;45.70;;;;;;474063;251;1419;-53
2022/10/19 09:18:08;;;;;;;;;;;23.00;45.60;;;;;;474206;251;1230;-54
2022/10/19 09:20:09;;;;;;;;;;;23.00;45.70;;;;;;474198;251;1357;-53
2022/10/19 09:22:11;;;;;;;;;;;23.00;45.60;;;;;;474159;251;1356;-54
2022/10/19 09:24:14;;;;;;;;;;;23.00;45.50;;;;;;474127;251;2217;-54
2022/10/19 09:26:13;;;;;;;;;;;23.00;45.50;;;;;;473966;251;1350;-53
2022/10/19 09:28:15;;;;;;;;;;;23.00;45.50;;;;;;474014;251;1344;-54
2022/10/19 09:30:16;;;;;;;;;;;23.00;45.50;;;;;;474163;251;1300;-53
2022/10/19 09:32:17;;;;;;;;;;;23.00;45.40;;;;;;474254;251;1192;-54
2022/10/19 09:34:18;;;;;;;;;;;23.00;45.40;;;;;;474129;251;1370;-54
2022/10/19 09:36:20;;;;;;;;;;;23.00;45.40;;;;;;474008;251;1469;-54
2022/10/19 09:38:21;;;;;;;;;;;23.00;45.30;;;;;;473971;251;1410;-54
2022/10/19 09:40:23;;;;;;;;;;;23.00;45.30;;;;;;474207;251;1336;-54
2022/10/19 09:42:24;;;;;;;;;;;23.00;45.20;;;;;;474349;251;1221;-53
2022/10/19 09:44:25;;;;;;;;;;;23.00;45.30;;;;;;474368;251;2199;-54
2022/10/19 09:46:27;;;;;;;;;;;23.00;45.20;;;;;;474061;251;1318;-54
2022/10/19 09:48:28;;;;;;;;;;;23.00;45.20;;;;;;474409;251;1302;-53
2022/10/19 09:50:29;;;;;;;;;;;23.00;45.20;;;;;;474360;251;1332;-54
2022/10/19 09:52:31;;;;;;;;;;;23.10;45.20;;;;;;474090;251;1586;-53
2022/10/19 09:54:32;;;;;;;;;;;23.00;45.20;;;;;;474141;251;1231;-54
2022/10/19 09:56:35;;;;;;;;;;;23.00;45.20;;;;;;474150;251;1299;-54
2022/10/19 09:58:35;;;;;;;;;;;23.00;45.20;;;;;;474030;251;2035;-54
2022/10/19 10:00:36;;;;;;;;;;;23.00;45.20;;;;;;474251;251;1294;-54
2022/10/19 10:02:37;;;;;;;;;;;23.00;45.10;;;;;;474155;251;1278;-54
2022/10/19 10:04:39;;;;;;;;;;;23.00;45.20;;;;;;474259;251;2188;-54
2022/10/19 10:06:40;;;;;;;;;;;23.00;45.10;;;;;;474181;251;1666;-54
2022/10/19 10:08:41;;;;;;;;;;;23.00;45.20;;;;;;474323;251;1288;-54
2022/10/19 10:10:43;;;;;;;;;;;23.00;45.00;;;;;;474116;251;1868;-53
2022/10/19 10:12:44;;;;;;;;;;;23.00;45.00;;;;;;474117;251;1523;-54
2022/10/19 10:14:45;;;;;;;;;;;23.00;45.10;;;;;;474128;251;1300;-54
2022/10/19 10:16:47;;;;;;;;;;;23.00;45.00;;;;;;474293;251;1272;-54
2022/10/19 10:18:48;;;;;;;;;;;23.10;45.00;;;;;;474300;251;1246;-53
2022/10/19 10:20:49;;;;;;;;;;;23.10;45.00;;;;;;474226;251;1581;-54
2022/10/19 10:22:51;;;;;;;;;;;23.10;45.10;;;;;;474287;251;1305;-53
2022/10/19 10:24:52;;;;;;;;;;;23.10;45.00;;;;;;474135;251;2197;-54
2022/10/19 10:26:53;;;;;;;;;;;23.00;44.90;;;;;;474355;251;1246;-54
2022/10/19 10:28:55;;;;;;;;;;;23.10;45.00;;;;;;474319;251;1275;-54
2022/10/19 10:30:56;;;;;;;;;;;23.10;45.00;;;;;;474325;251;1464;-54
2022/10/19 10:32:58;;;;;;;;;;;23.10;44.90;;;;;;474260;251;1282;-54
2022/10/19 10:34:59;;;;;;;;;;;23.00;45.00;;;;;;474174;251;1293;-54
2022/10/19 10:37:00;;;;;;;;;;;23.10;44.90;;;;;;474169;251;1310;-54
2022/10/19 10:39:03;;;;;;;;;;;23.10;44.90;;;;;;474276;251;1222;-53
2022/10/19 10:41:06;;;;;;;;;;;23.10;44.80;;;;;;474237;251;1558;-53
2022/10/19 10:43:05;;;;;;;;;;;23.10;44.70;;;;;;474408;251;2168;-54
2022/10/19 10:45:07;;;;;;;;;;;23.10;44.90;;;;;;474202;251;2213;-54
2022/10/19 10:47:08;;;;;;;;;;;23.10;44.80;;;;;;474213;251;1269;-54
2022/10/19 10:49:09;;;;;;;;;;;23.00;44.80;;;;;;474334;251;1264;-54
2022/10/19 10:51:10;;;;;;;;;;;23.10;44.80;;;;;;474224;251;1268;-54
2022/10/19 10:53:12;;;;;;;;;;;23.10;44.80;;;;;;474364;251;1230;-54
2022/10/19 10:55:13;;;;;;;;;;;23.10;44.80;;;;;;474453;251;1218;-54
2022/10/19 10:57:15;;;;;;;;;;;23.10;44.80;;;;;;474457;251;1257;-54
2022/10/19 10:59:16;;;;;;;;;;;23.10;44.80;;;;;;474062;251;1217;-53
2022/10/19 11:01:17;;;;;;;;;;;23.10;44.70;;;;;;474323;251;1340;-54
2022/10/19 11:03:19;;;;;;;;;;;23.10;44.60;;;;;;474322;251;1290;-53
2022/10/19 11:05:21;;;;;;;;;;;23.00;44.60;;;;;;474326;251;2169;-54
2022/10/19 11:07:22;;;;;;;;;;;23.00;44.60;;;;;;474325;251;2118;-54
2022/10/19 11:09:23;;;;;;;;;;;23.10;44.60;;;;;;474192;251;1246;-53
2022/10/19 11:11:24;;;;;;;;;;;23.00;44.50;;;;;;474478;251;1264;-54
2022/10/19 11:13:26;;;;;;;;;;;23.10;44.70;;;;;;474391;251;1216;-54
2022/10/19 11:15:27;;;;;;;;;;;23.00;44.50;;;;;;474265;251;1331;-54
2022/10/19 11:17:28;;;;;;;;;;;23.00;44.50;;;;;;474308;251;1279;-54
2022/10/19 11:19:30;;;;;;;;;;;23.10;44.50;;;;;;474493;251;1251;-54
2022/10/19 11:21:31;;;;;;;;;;;23.00;44.50;;;;;;474293;251;1237;-54
2022/10/19 11:23:33;;;;;;;;;;;23.10;44.50;;;;;;474269;251;1533;-53
2022/10/19 11:25:34;;;;;;;;;;;23.10;44.60;;;;;;474124;251;2200;-53
2022/10/19 11:27:35;;;;;;;;;;;23.10;44.40;;;;;;474272;251;1382;-53
2022/10/19 11:29:37;;;;;;;;;;;23.10;44.40;;;;;;474338;251;1241;-53
2022/10/19 11:31:38;;;;;;;;;;;23.10;44.40;;;;;;474117;251;1255;-53
2022/10/19 11:33:39;;;;;;;;;;;23.10;44.30;;;;;;474281;251;1285;-53
2022/10/19 11:35:40;;;;;;;;;;;23.20;44.40;;;;;;474139;251;1318;-53
2022/10/19 11:37:42;;;;;;;;;;;23.10;44.10;;;;;;474205;251;1630;-53
2022/10/19 11:39:43;;;;;;;;;;;23.20;44.20;;;;;;474272;251;1258;-53
2022/10/19 11:41:45;;;;;;;;;;;23.10;44.20;;;;;;474340;251;1278;-54
2022/10/19 11:43:46;;;;;;;;;;;23.10;44.30;;;;;;474255;251;2162;-54
2022/10/19 11:45:47;;;;;;;;;;;23.20;44.20;;;;;;474501;251;1219;-54
2022/10/19 11:47:50;;;;;;;;;;;23.20;44.20;;;;;;474219;251;1280;-54
2022/10/19 11:49:50;;;;;;;;;;;23.20;44.10;;;;;;474382;251;1556;-53
2022/10/19 11:51:52;;;;;;;;;;;23.20;44.20;;;;;;474153;251;1216;-54
2022/10/19 11:53:53;;;;;;;;;;;23.20;44.10;;;;;;474342;251;2113;-54
2022/10/19 11:55:54;;;;;;;;;;;23.20;44.10;;;;;;474398;251;1441;-54
2022/10/19 11:57:55;;;;;;;;;;;23.20;44.20;;;;;;474149;251;1139;-54